sensor_id;sensor_type;location;lat;lon;timestamp;P1;durP1;ratioP1;P2;durP2;ratioP2
42614;SDS011;28754;47.700;7.924;2024-03-06T00:01:35;0.50;;;0.50;;
42614;SDS011;28754;47.700;7.924;2024-03-06T00:04:22;0.30;;;0.30;;
42614;SDS011;28754;47.700;7.924;2024-03-06T00:07:10;0.40;;;0.40;;
42614;SDS011;28754;47.700;7.924;2024-03-06T00:09:56;0.30;;;0.30;;
42614;SDS011;28754;47.700;7.924;2024-03-06T00:12:43;0.40;;;0.40;;
42614;SDS011;28754;47.700;7.924;2024-03-06T00:15:30;0.40;;;0.40;;
42614;SDS011;28754;47.700;7.924;2024-03-06T00:18:16;0.20;;;0.20;;
42614;SDS011;28754;47.700;7.924;2024-03-06T00:21:03;0.30;;;0.30;;
42614;SDS011;28754;47.700;7.924;2024-03-06T00:23:50;2.47;;;0.88;;
42614;SDS011;28754;47.700;7.924;2024-03-06T00:26:37;0.55;;;0.55;;
42614;SDS011;28754;47.700;7.924;2024-03-06T00:29:26;0.40;;;0.40;;
42614;SDS011;28754;47.700;7.924;2024-03-06T00:32:13;0.85;;;0.80;;
42614;SDS011;28754;47.700;7.924;2024-03-06T00:35:00;0.40;;;0.40;;
42614;SDS011;28754;47.700;7.924;2024-03-06T00:37:47;1.92;;;0.47;;
42614;SDS011;28754;47.700;7.924;2024-03-06T00:40:33;0.50;;;0.50;;
42614;SDS011;28754;47.700;7.924;2024-03-06T00:43:20;0.30;;;0.30;;
42614;SDS011;28754;47.700;7.924;2024-03-06T00:46:07;0.70;;;0.68;;
42614;SDS011;28754;47.700;7.924;2024-03-06T00:48:53;0.25;;;0.25;;
42614;SDS011;28754;47.700;7.924;2024-03-06T00:51:40;0.40;;;0.40;;
42614;SDS011;28754;47.700;7.924;2024-03-06T00:54:27;2.30;;;0.50;;
42614;SDS011;28754;47.700;7.924;2024-03-06T00:57:13;0.40;;;0.40;;
42614;SDS011;28754;47.700;7.924;2024-03-06T01:00:00;0.95;;;0.65;;
42614;SDS011;28754;47.700;7.924;2024-03-06T01:02:47;0.60;;;0.40;;
42614;SDS011;28754;47.700;7.924;2024-03-06T01:05:34;0.40;;;0.22;;
42614;SDS011;28754;47.700;7.924;2024-03-06T01:08:21;0.60;;;0.60;;
42614;SDS011;28754;47.700;7.924;2024-03-06T01:11:11;0.32;;;0.32;;
42614;SDS011;28754;47.700;7.924;2024-03-06T01:14:00;0.50;;;0.50;;
42614;SDS011;28754;47.700;7.924;2024-03-06T01:16:48;0.47;;;0.47;;
42614;SDS011;28754;47.700;7.924;2024-03-06T01:19:34;0.52;;;0.52;;
42614;SDS011;28754;47.700;7.924;2024-03-06T01:22:21;0.20;;;0.20;;
42614;SDS011;28754;47.700;7.924;2024-03-06T01:25:08;0.47;;;0.40;;
42614;SDS011;28754;47.700;7.924;2024-03-06T01:27:55;0.50;;;0.40;;
42614;SDS011;28754;47.700;7.924;2024-03-06T01:30:42;0.73;;;0.40;;
42614;SDS011;28754;47.700;7.924;2024-03-06T01:33:28;0.77;;;0.60;;
42614;SDS011;28754;47.700;7.924;2024-03-06T01:36:15;1.05;;;0.80;;
42614;SDS011;28754;47.700;7.924;2024-03-06T01:39:02;10.00;;;1.20;;
42614;SDS011;28754;47.700;7.924;2024-03-06T01:41:49;1.02;;;0.60;;
42614;SDS011;28754;47.700;7.924;2024-03-06T01:44:37;1.08;;;0.70;;
42614;SDS011;28754;47.700;7.924;2024-03-06T01:47:24;0.80;;;0.70;;
42614;SDS011;28754;47.700;7.924;2024-03-06T01:50:10;2.58;;;0.75;;
42614;SDS011;28754;47.700;7.924;2024-03-06T01:52:57;0.45;;;0.40;;
42614;SDS011;28754;47.700;7.924;2024-03-06T01:55:44;1.02;;;0.93;;
42614;SDS011;28754;47.700;7.924;2024-03-06T01:58:33;0.55;;;0.50;;
42614;SDS011;28754;47.700;7.924;2024-03-06T02:01:20;0.65;;;0.65;;
42614;SDS011;28754;47.700;7.924;2024-03-06T02:04:08;0.80;;;0.60;;
42614;SDS011;28754;47.700;7.924;2024-03-06T02:06:58;0.52;;;0.52;;
42614;SDS011;28754;47.700;7.924;2024-03-06T02:09:45;0.73;;;0.70;;
42614;SDS011;28754;47.700;7.924;2024-03-06T02:12:32;0.85;;;0.70;;
42614;SDS011;28754;47.700;7.924;2024-03-06T02:15:19;0.60;;;0.60;;
42614;SDS011;28754;47.700;7.924;2024-03-06T02:18:06;1.05;;;0.73;;
42614;SDS011;28754;47.700;7.924;2024-03-06T02:20:54;1.17;;;0.93;;
42614;SDS011;28754;47.700;7.924;2024-03-06T02:23:41;0.73;;;0.73;;
42614;SDS011;28754;47.700;7.924;2024-03-06T02:26:28;6.35;;;0.98;;
42614;SDS011;28754;47.700;7.924;2024-03-06T02:29:14;0.82;;;0.82;;
42614;SDS011;28754;47.700;7.924;2024-03-06T02:32:01;2.42;;;1.08;;
42614;SDS011;28754;47.700;7.924;2024-03-06T02:34:50;4.57;;;1.50;;
42614;SDS011;28754;47.700;7.924;2024-03-06T02:37:37;2.88;;;0.90;;
42614;SDS011;28754;47.700;7.924;2024-03-06T02:40:24;2.00;;;1.02;;
42614;SDS011;28754;47.700;7.924;2024-03-06T02:43:11;4.63;;;1.25;;
42614;SDS011;28754;47.700;7.924;2024-03-06T02:45:58;4.45;;;1.58;;
42614;SDS011;28754;47.700;7.924;2024-03-06T02:48:45;15.80;;;2.15;;
42614;SDS011;28754;47.700;7.924;2024-03-06T02:51:31;11.30;;;1.50;;
42614;SDS011;28754;47.700;7.924;2024-03-06T02:54:18;1.60;;;1.10;;
42614;SDS011;28754;47.700;7.924;2024-03-06T02:57:05;10.13;;;1.60;;
42614;SDS011;28754;47.700;7.924;2024-03-06T02:59:51;1.35;;;1.20;;
42614;SDS011;28754;47.700;7.924;2024-03-06T03:02:38;2.20;;;0.98;;
42614;SDS011;28754;47.700;7.924;2024-03-06T03:05:26;1.63;;;1.42;;
42614;SDS011;28754;47.700;7.924;2024-03-06T03:08:12;5.55;;;1.90;;
42614;SDS011;28754;47.700;7.924;2024-03-06T03:10:59;5.90;;;1.30;;
42614;SDS011;28754;47.700;7.924;2024-03-06T03:13:46;3.88;;;1.60;;
42614;SDS011;28754;47.700;7.924;2024-03-06T03:16:32;2.55;;;1.55;;
42614;SDS011;28754;47.700;7.924;2024-03-06T03:19:20;29.77;;;3.58;;
42614;SDS011;28754;47.700;7.924;2024-03-06T03:22:06;35.67;;;3.05;;
42614;SDS011;28754;47.700;7.924;2024-03-06T03:24:55;31.30;;;3.47;;
42614;SDS011;28754;47.700;7.924;2024-03-06T03:27:41;87.50;;;8.80;;
42614;SDS011;28754;47.700;7.924;2024-03-06T03:30:29;98.25;;;8.23;;
42614;SDS011;28754;47.700;7.924;2024-03-06T03:33:18;43.55;;;4.97;;
42614;SDS011;28754;47.700;7.924;2024-03-06T03:36:05;123.90;;;10.32;;
42614;SDS011;28754;47.700;7.924;2024-03-06T03:38:53;103.70;;;7.85;;
42614;SDS011;28754;47.700;7.924;2024-03-06T03:41:42;90.47;;;7.93;;
42614;SDS011;28754;47.700;7.924;2024-03-06T03:44:33;23.50;;;3.00;;
42614;SDS011;28754;47.700;7.924;2024-03-06T03:47:19;51.75;;;4.63;;
42614;SDS011;28754;47.700;7.924;2024-03-06T03:50:06;68.55;;;6.95;;
42614;SDS011;28754;47.700;7.924;2024-03-06T03:52:55;29.20;;;3.42;;
42614;SDS011;28754;47.700;7.924;2024-03-06T03:55:43;4.97;;;2.40;;
42614;SDS011;28754;47.700;7.924;2024-03-06T03:58:30;34.47;;;3.78;;
42614;SDS011;28754;47.700;7.924;2024-03-06T04:01:17;12.60;;;2.67;;
42614;SDS011;28754;47.700;7.924;2024-03-06T04:04:03;13.20;;;1.90;;
42614;SDS011;28754;47.700;7.924;2024-03-06T04:06:50;6.47;;;1.55;;
42614;SDS011;28754;47.700;7.924;2024-03-06T04:09:37;7.13;;;2.13;;
42614;SDS011;28754;47.700;7.924;2024-03-06T04:12:25;3.47;;;1.60;;
42614;SDS011;28754;47.700;7.924;2024-03-06T04:15:11;4.63;;;1.80;;
42614;SDS011;28754;47.700;7.924;2024-03-06T04:17:58;2.72;;;1.83;;
42614;SDS011;28754;47.700;7.924;2024-03-06T04:20:44;2.92;;;1.70;;
42614;SDS011;28754;47.700;7.924;2024-03-06T04:23:31;3.53;;;1.52;;
42614;SDS011;28754;47.700;7.924;2024-03-06T04:26:19;3.17;;;1.60;;
42614;SDS011;28754;47.700;7.924;2024-03-06T04:29:06;2.10;;;1.85;;
42614;SDS011;28754;47.700;7.924;2024-03-06T04:31:53;4.70;;;1.73;;
42614;SDS011;28754;47.700;7.924;2024-03-06T04:34:39;1.60;;;1.50;;
42614;SDS011;28754;47.700;7.924;2024-03-06T04:37:26;1.88;;;1.65;;
42614;SDS011;28754;47.700;7.924;2024-03-06T04:40:13;7.97;;;2.05;;
42614;SDS011;28754;47.700;7.924;2024-03-06T04:43:03;1.33;;;1.13;;
42614;SDS011;28754;47.700;7.924;2024-03-06T04:45:50;1.88;;;1.45;;
42614;SDS011;28754;47.700;7.924;2024-03-06T04:48:37;1.30;;;1.05;;
42614;SDS011;28754;47.700;7.924;2024-03-06T04:51:24;2.10;;;1.50;;
42614;SDS011;28754;47.700;7.924;2024-03-06T04:54:10;4.75;;;1.40;;
42614;SDS011;28754;47.700;7.924;2024-03-06T04:56:57;1.65;;;1.40;;
42614;SDS011;28754;47.700;7.924;2024-03-06T04:59:44;1.70;;;1.30;;
42614;SDS011;28754;47.700;7.924;2024-03-06T05:02:30;0.95;;;0.73;;
42614;SDS011;28754;47.700;7.924;2024-03-06T05:05:20;1.35;;;0.82;;
42614;SDS011;28754;47.700;7.924;2024-03-06T05:08:07;1.48;;;1.10;;
42614;SDS011;28754;47.700;7.924;2024-03-06T05:10:53;0.90;;;0.82;;
42614;SDS011;28754;47.700;7.924;2024-03-06T05:13:40;1.08;;;0.98;;
42614;SDS011;28754;47.700;7.924;2024-03-06T05:16:26;1.02;;;0.80;;
42614;SDS011;28754;47.700;7.924;2024-03-06T05:19:13;0.95;;;0.80;;
42614;SDS011;28754;47.700;7.924;2024-03-06T05:22:00;1.52;;;0.60;;
42614;SDS011;28754;47.700;7.924;2024-03-06T05:24:47;1.70;;;0.90;;
42614;SDS011;28754;47.700;7.924;2024-03-06T05:27:34;2.38;;;0.90;;
42614;SDS011;28754;47.700;7.924;2024-03-06T05:30:21;3.03;;;1.15;;
42614;SDS011;28754;47.700;7.924;2024-03-06T05:33:07;2.83;;;0.93;;
42614;SDS011;28754;47.700;7.924;2024-03-06T05:35:54;34.00;;;4.15;;
42614;SDS011;28754;47.700;7.924;2024-03-06T05:38:41;44.67;;;5.10;;
42614;SDS011;28754;47.700;7.924;2024-03-06T05:41:28;85.57;;;6.47;;
42614;SDS011;28754;47.700;7.924;2024-03-06T05:44:15;34.60;;;3.33;;
42614;SDS011;28754;47.700;7.924;2024-03-06T05:47:02;25.63;;;5.32;;
42614;SDS011;28754;47.700;7.924;2024-03-06T05:49:49;10.20;;;4.65;;
42614;SDS011;28754;47.700;7.924;2024-03-06T05:52:36;13.27;;;4.78;;
42614;SDS011;28754;47.700;7.924;2024-03-06T05:55:23;8.18;;;4.93;;
42614;SDS011;28754;47.700;7.924;2024-03-06T05:58:09;4.00;;;2.85;;
42614;SDS011;28754;47.700;7.924;2024-03-06T06:00:56;4.45;;;3.20;;
42614;SDS011;28754;47.700;7.924;2024-03-06T06:03:43;5.28;;;2.63;;
42614;SDS011;28754;47.700;7.924;2024-03-06T06:06:29;20.90;;;2.08;;
42614;SDS011;28754;47.700;7.924;2024-03-06T06:09:16;1.13;;;0.73;;
42614;SDS011;28754;47.700;7.924;2024-03-06T06:12:03;12.40;;;1.63;;
42614;SDS011;28754;47.700;7.924;2024-03-06T06:14:50;7.38;;;1.30;;
42614;SDS011;28754;47.700;7.924;2024-03-06T06:17:36;2.00;;;0.93;;
42614;SDS011;28754;47.700;7.924;2024-03-06T06:20:23;1.17;;;0.80;;
42614;SDS011;28754;47.700;7.924;2024-03-06T06:23:10;1.35;;;0.80;;
42614;SDS011;28754;47.700;7.924;2024-03-06T06:25:57;2.17;;;0.80;;
42614;SDS011;28754;47.700;7.924;2024-03-06T06:28:43;3.55;;;0.82;;
42614;SDS011;28754;47.700;7.924;2024-03-06T06:31:32;1.42;;;1.00;;
42614;SDS011;28754;47.700;7.924;2024-03-06T06:34:19;0.68;;;0.65;;
42614;SDS011;28754;47.700;7.924;2024-03-06T06:37:05;1.95;;;0.80;;
42614;SDS011;28754;47.700;7.924;2024-03-06T06:39:52;1.98;;;0.85;;
42614;SDS011;28754;47.700;7.924;2024-03-06T06:42:43;6.93;;;0.70;;
42614;SDS011;28754;47.700;7.924;2024-03-06T06:45:37;0.70;;;0.55;;
42614;SDS011;28754;47.700;7.924;2024-03-06T06:48:24;1.30;;;0.52;;
42614;SDS011;28754;47.700;7.924;2024-03-06T06:51:11;0.30;;;0.30;;
42614;SDS011;28754;47.700;7.924;2024-03-06T06:53:57;0.25;;;0.25;;
42614;SDS011;28754;47.700;7.924;2024-03-06T06:56:44;0.10;;;0.10;;
42614;SDS011;28754;47.700;7.924;2024-03-06T06:59:31;0.50;;;0.50;;
42614;SDS011;28754;47.700;7.924;2024-03-06T07:02:17;0.43;;;0.40;;
42614;SDS011;28754;47.700;7.924;2024-03-06T07:05:04;0.28;;;0.20;;
42614;SDS011;28754;47.700;7.924;2024-03-06T07:07:52;0.30;;;0.20;;
42614;SDS011;28754;47.700;7.924;2024-03-06T07:10:39;0.52;;;0.28;;
42614;SDS011;28754;47.700;7.924;2024-03-06T07:13:25;1.00;;;0.45;;
42614;SDS011;28754;47.700;7.924;2024-03-06T07:16:12;0.25;;;0.25;;
42614;SDS011;28754;47.700;7.924;2024-03-06T07:18:59;0.10;;;0.10;;
42614;SDS011;28754;47.700;7.924;2024-03-06T07:21:45;0.10;;;0.10;;
42614;SDS011;28754;47.700;7.924;2024-03-06T07:24:32;0.17;;;0.17;;
42614;SDS011;28754;47.700;7.924;2024-03-06T07:27:18;0.20;;;0.20;;
42614;SDS011;28754;47.700;7.924;2024-03-06T07:30:05;0.10;;;0.10;;
42614;SDS011;28754;47.700;7.924;2024-03-06T07:32:53;0.10;;;0.10;;
42614;SDS011;28754;47.700;7.924;2024-03-06T07:35:39;0.08;;;0.08;;
42614;SDS011;28754;47.700;7.924;2024-03-06T07:38:26;0.40;;;0.30;;
42614;SDS011;28754;47.700;7.924;2024-03-06T07:41:14;0.20;;;0.20;;
42614;SDS011;28754;47.700;7.924;2024-03-06T07:44:00;0.20;;;0.15;;
42614;SDS011;28754;47.700;7.924;2024-03-06T07:46:48;0.22;;;0.20;;
42614;SDS011;28754;47.700;7.924;2024-03-06T07:49:35;0.10;;;0.10;;
42614;SDS011;28754;47.700;7.924;2024-03-06T07:52:22;0.25;;;0.25;;
42614;SDS011;28754;47.700;7.924;2024-03-06T07:55:08;6.65;;;0.45;;
42614;SDS011;28754;47.700;7.924;2024-03-06T07:57:55;0.10;;;0.10;;
42614;SDS011;28754;47.700;7.924;2024-03-06T08:00:42;0.30;;;0.10;;
42614;SDS011;28754;47.700;7.924;2024-03-06T08:03:29;0.10;;;0.10;;
42614;SDS011;28754;47.700;7.924;2024-03-06T08:06:16;0.20;;;0.20;;
42614;SDS011;28754;47.700;7.924;2024-03-06T08:09:04;0.20;;;0.20;;
42614;SDS011;28754;47.700;7.924;2024-03-06T08:11:52;0.10;;;0.10;;
42614;SDS011;28754;47.700;7.924;2024-03-06T08:14:40;0.20;;;0.20;;
42614;SDS011;28754;47.700;7.924;2024-03-06T08:17:27;0.45;;;0.30;;
42614;SDS011;28754;47.700;7.924;2024-03-06T08:20:13;0.57;;;0.32;;
42614;SDS011;28754;47.700;7.924;2024-03-06T08:23:00;0.30;;;0.30;;
42614;SDS011;28754;47.700;7.924;2024-03-06T08:25:47;0.17;;;0.17;;
42614;SDS011;28754;47.700;7.924;2024-03-06T08:28:33;0.45;;;0.22;;
42614;SDS011;28754;47.700;7.924;2024-03-06T08:31:20;1.45;;;0.20;;
42614;SDS011;28754;47.700;7.924;2024-03-06T08:34:07;0.20;;;0.20;;
42614;SDS011;28754;47.700;7.924;2024-03-06T08:36:54;0.93;;;0.13;;
42614;SDS011;28754;47.700;7.924;2024-03-06T08:39:41;0.38;;;0.30;;
42614;SDS011;28754;47.700;7.924;2024-03-06T08:42:28;0.20;;;0.20;;
42614;SDS011;28754;47.700;7.924;2024-03-06T08:45:15;0.35;;;0.28;;
42614;SDS011;28754;47.700;7.924;2024-03-06T08:48:03;1.40;;;0.40;;
42614;SDS011;28754;47.700;7.924;2024-03-06T08:50:49;0.47;;;0.25;;
42614;SDS011;28754;47.700;7.924;2024-03-06T08:53:37;0.82;;;0.40;;
42614;SDS011;28754;47.700;7.924;2024-03-06T08:56:24;0.75;;;0.40;;
42614;SDS011;28754;47.700;7.924;2024-03-06T08:59:11;1.13;;;1.02;;
42614;SDS011;28754;47.700;7.924;2024-03-06T09:01:58;0.30;;;0.30;;
42614;SDS011;28754;47.700;7.924;2024-03-06T09:04:59;3.78;;;0.65;;
42614;SDS011;28754;47.700;7.924;2024-03-06T09:07:46;0.55;;;0.47;;
42614;SDS011;28754;47.700;7.924;2024-03-06T09:10:32;0.63;;;0.50;;
42614;SDS011;28754;47.700;7.924;2024-03-06T09:13:19;1.08;;;0.75;;
42614;SDS011;28754;47.700;7.924;2024-03-06T09:16:06;5.40;;;0.85;;
42614;SDS011;28754;47.700;7.924;2024-03-06T09:18:52;1.20;;;0.82;;
42614;SDS011;28754;47.700;7.924;2024-03-06T09:21:39;0.82;;;0.70;;
42614;SDS011;28754;47.700;7.924;2024-03-06T09:24:26;0.57;;;0.57;;
42614;SDS011;28754;47.700;7.924;2024-03-06T09:27:14;0.95;;;0.80;;
42614;SDS011;28754;47.700;7.924;2024-03-06T09:30:02;1.05;;;0.70;;
42614;SDS011;28754;47.700;7.924;2024-03-06T09:32:49;1.02;;;0.80;;
42614;SDS011;28754;47.700;7.924;2024-03-06T09:35:37;15.65;;;1.25;;
42614;SDS011;28754;47.700;7.924;2024-03-06T09:38:24;2.80;;;0.77;;
42614;SDS011;28754;47.700;7.924;2024-03-06T09:41:10;17.02;;;1.23;;
42614;SDS011;28754;47.700;7.924;2024-03-06T09:43:59;0.55;;;0.45;;
42614;SDS011;28754;47.700;7.924;2024-03-06T09:46:46;13.27;;;0.95;;
42614;SDS011;28754;47.700;7.924;2024-03-06T09:49:35;19.08;;;1.30;;
42614;SDS011;28754;47.700;7.924;2024-03-06T09:52:23;29.45;;;2.88;;
42614;SDS011;28754;47.700;7.924;2024-03-06T09:55:13;7.25;;;0.90;;
42614;SDS011;28754;47.700;7.924;2024-03-06T09:58:01;3.63;;;0.85;;
42614;SDS011;28754;47.700;7.924;2024-03-06T10:00:50;1.25;;;0.70;;
42614;SDS011;28754;47.700;7.924;2024-03-06T10:03:40;3.45;;;0.75;;
42614;SDS011;28754;47.700;7.924;2024-03-06T10:06:27;0.75;;;0.75;;
42614;SDS011;28754;47.700;7.924;2024-03-06T10:09:17;0.57;;;0.55;;
42614;SDS011;28754;47.700;7.924;2024-03-06T10:12:05;1.40;;;0.60;;
42614;SDS011;28754;47.700;7.924;2024-03-06T10:14:52;0.50;;;0.50;;
42614;SDS011;28754;47.700;7.924;2024-03-06T10:17:39;0.40;;;0.32;;
42614;SDS011;28754;47.700;7.924;2024-03-06T10:20:27;0.52;;;0.40;;
42614;SDS011;28754;47.700;7.924;2024-03-06T10:23:14;0.35;;;0.35;;
42614;SDS011;28754;47.700;7.924;2024-03-06T10:26:01;0.40;;;0.40;;
42614;SDS011;28754;47.700;7.924;2024-03-06T10:28:47;0.68;;;0.57;;
42614;SDS011;28754;47.700;7.924;2024-03-06T10:31:34;0.40;;;0.30;;
42614;SDS011;28754;47.700;7.924;2024-03-06T10:34:21;0.70;;;0.45;;
42614;SDS011;28754;47.700;7.924;2024-03-06T10:37:12;0.52;;;0.43;;
42614;SDS011;28754;47.700;7.924;2024-03-06T10:40:02;0.40;;;0.20;;
42614;SDS011;28754;47.700;7.924;2024-03-06T10:42:51;1.05;;;0.40;;
42614;SDS011;28754;47.700;7.924;2024-03-06T10:45:40;5.10;;;0.25;;
42614;SDS011;28754;47.700;7.924;2024-03-06T10:48:42;0.30;;;0.30;;
42614;SDS011;28754;47.700;7.924;2024-03-06T10:51:30;0.90;;;0.20;;
42614;SDS011;28754;47.700;7.924;2024-03-06T10:54:19;0.65;;;0.50;;
42614;SDS011;28754;47.700;7.924;2024-03-06T10:57:09;0.68;;;0.38;;
42614;SDS011;28754;47.700;7.924;2024-03-06T10:59:57;0.85;;;0.20;;
42614;SDS011;28754;47.700;7.924;2024-03-06T11:02:46;1.77;;;0.90;;
42614;SDS011;28754;47.700;7.924;2024-03-06T11:05:36;0.70;;;0.60;;
42614;SDS011;28754;47.700;7.924;2024-03-06T11:08:26;0.52;;;0.40;;
42614;SDS011;28754;47.700;7.924;2024-03-06T11:11:23;1.65;;;0.70;;
42614;SDS011;28754;47.700;7.924;2024-03-06T11:14:10;0.30;;;0.30;;
42614;SDS011;28754;47.700;7.924;2024-03-06T11:17:03;0.75;;;0.52;;
42614;SDS011;28754;47.700;7.924;2024-03-06T11:31:27;1.17;;;0.65;;
42614;SDS011;28754;47.700;7.924;2024-03-06T11:34:14;0.43;;;0.40;;
42614;SDS011;28754;47.700;7.924;2024-03-06T11:37:06;0.65;;;0.40;;
42614;SDS011;28754;47.700;7.924;2024-03-06T11:39:59;0.30;;;0.30;;
42614;SDS011;28754;47.700;7.924;2024-03-06T11:42:54;1.10;;;0.47;;
42614;SDS011;28754;47.700;7.924;2024-03-06T11:45:44;3.55;;;0.82;;
42614;SDS011;28754;47.700;7.924;2024-03-06T11:48:30;0.75;;;0.60;;
42614;SDS011;28754;47.700;7.924;2024-03-06T11:51:17;0.88;;;0.50;;
42614;SDS011;28754;47.700;7.924;2024-03-06T11:54:04;0.55;;;0.50;;
42614;SDS011;28754;47.700;7.924;2024-03-06T11:56:52;1.58;;;0.40;;
42614;SDS011;28754;47.700;7.924;2024-03-06T11:59:41;3.28;;;0.77;;
42614;SDS011;28754;47.700;7.924;2024-03-06T12:02:28;1.80;;;0.80;;
42614;SDS011;28754;47.700;7.924;2024-03-06T12:05:16;1.85;;;0.70;;
42614;SDS011;28754;47.700;7.924;2024-03-06T12:08:06;0.45;;;0.45;;
42614;SDS011;28754;47.700;7.924;2024-03-06T12:10:56;2.15;;;0.77;;
42614;SDS011;28754;47.700;7.924;2024-03-06T12:13:44;1.17;;;0.77;;
42614;SDS011;28754;47.700;7.924;2024-03-06T12:16:31;0.65;;;0.40;;
42614;SDS011;28754;47.700;7.924;2024-03-06T12:19:18;0.70;;;0.63;;
42614;SDS011;28754;47.700;7.924;2024-03-06T12:22:06;1.25;;;1.15;;
42614;SDS011;28754;47.700;7.924;2024-03-06T12:24:58;1.20;;;0.50;;
42614;SDS011;28754;47.700;7.924;2024-03-06T12:27:46;2.83;;;0.93;;
42614;SDS011;28754;47.700;7.924;2024-03-06T12:30:38;2.40;;;0.63;;
42614;SDS011;28754;47.700;7.924;2024-03-06T12:33:30;2.17;;;0.70;;
42614;SDS011;28754;47.700;7.924;2024-03-06T12:36:24;0.68;;;0.68;;
42614;SDS011;28754;47.700;7.924;2024-03-06T12:39:14;0.30;;;0.30;;
42614;SDS011;28754;47.700;7.924;2024-03-06T12:42:06;3.53;;;0.63;;
42614;SDS011;28754;47.700;7.924;2024-03-06T12:44:57;0.93;;;0.73;;
42614;SDS011;28754;47.700;7.924;2024-03-06T12:47:45;2.67;;;0.57;;
42614;SDS011;28754;47.700;7.924;2024-03-06T12:50:36;1.05;;;0.95;;
42614;SDS011;28754;47.700;7.924;2024-03-06T12:53:22;2.20;;;0.80;;
42614;SDS011;28754;47.700;7.924;2024-03-06T12:56:09;1.05;;;0.60;;
42614;SDS011;28754;47.700;7.924;2024-03-06T13:01:46;3.63;;;0.50;;
42614;SDS011;28754;47.700;7.924;2024-03-06T13:04:52;0.68;;;0.50;;
42614;SDS011;28754;47.700;7.924;2024-03-06T13:07:50;0.95;;;0.68;;
42614;SDS011;28754;47.700;7.924;2024-03-06T13:11:00;0.63;;;0.50;;
42614;SDS011;28754;47.700;7.924;2024-03-06T13:13:54;1.27;;;0.77;;
42614;SDS011;28754;47.700;7.924;2024-03-06T13:16:46;1.17;;;0.50;;
42614;SDS011;28754;47.700;7.924;2024-03-06T13:19:35;1.33;;;0.52;;
42614;SDS011;28754;47.700;7.924;2024-03-06T13:22:28;1.05;;;0.45;;
42614;SDS011;28754;47.700;7.924;2024-03-06T13:25:30;2.55;;;0.60;;
42614;SDS011;28754;47.700;7.924;2024-03-06T13:57:34;1.00;;;0.82;;
42614;SDS011;28754;47.700;7.924;2024-03-06T14:06:18;1.20;;;0.85;;
42614;SDS011;28754;47.700;7.924;2024-03-06T14:09:34;1.45;;;0.98;;
42614;SDS011;28754;47.700;7.924;2024-03-06T14:12:21;1.17;;;0.98;;
42614;SDS011;28754;47.700;7.924;2024-03-06T14:15:08;1.77;;;1.10;;
42614;SDS011;28754;47.700;7.924;2024-03-06T14:17:58;1.25;;;0.90;;
42614;SDS011;28754;47.700;7.924;2024-03-06T14:20:44;2.38;;;1.25;;
42614;SDS011;28754;47.700;7.924;2024-03-06T14:23:31;2.40;;;1.30;;
42614;SDS011;28754;47.700;7.924;2024-03-06T14:26:18;1.83;;;1.10;;
42614;SDS011;28754;47.700;7.924;2024-03-06T14:29:05;3.10;;;1.27;;
42614;SDS011;28754;47.700;7.924;2024-03-06T14:31:53;2.55;;;1.15;;
42614;SDS011;28754;47.700;7.924;2024-03-06T14:34:40;1.85;;;1.42;;
42614;SDS011;28754;47.700;7.924;2024-03-06T14:37:29;4.15;;;1.08;;
42614;SDS011;28754;47.700;7.924;2024-03-06T14:40:16;2.33;;;1.50;;
42614;SDS011;28754;47.700;7.924;2024-03-06T14:43:02;2.70;;;1.65;;
42614;SDS011;28754;47.700;7.924;2024-03-06T14:45:54;1.63;;;1.17;;
42614;SDS011;28754;47.700;7.924;2024-03-06T14:48:42;2.70;;;1.20;;
42614;SDS011;28754;47.700;7.924;2024-03-06T14:51:30;3.90;;;1.65;;
42614;SDS011;28754;47.700;7.924;2024-03-06T14:54:17;2.35;;;1.35;;
42614;SDS011;28754;47.700;7.924;2024-03-06T14:57:03;3.75;;;1.60;;
42614;SDS011;28754;47.700;7.924;2024-03-06T14:59:51;2.20;;;1.17;;
42614;SDS011;28754;47.700;7.924;2024-03-06T15:02:39;1.73;;;1.50;;
42614;SDS011;28754;47.700;7.924;2024-03-06T15:05:26;4.60;;;2.22;;
42614;SDS011;28754;47.700;7.924;2024-03-06T15:08:13;15.43;;;10.95;;
42614;SDS011;28754;47.700;7.924;2024-03-06T15:11:00;58.53;;;41.75;;
42614;SDS011;28754;47.700;7.924;2024-03-06T15:13:47;19.83;;;14.60;;
42614;SDS011;28754;47.700;7.924;2024-03-06T15:16:37;5.72;;;2.72;;
42614;SDS011;28754;47.700;7.924;2024-03-06T15:19:25;2.20;;;1.38;;
42614;SDS011;28754;47.700;7.924;2024-03-06T15:22:12;2.70;;;1.52;;
42614;SDS011;28754;47.700;7.924;2024-03-06T15:24:59;1.45;;;1.02;;
42614;SDS011;28754;47.700;7.924;2024-03-06T15:27:45;1.98;;;1.50;;
42614;SDS011;28754;47.700;7.924;2024-03-06T15:30:33;3.63;;;1.67;;
42614;SDS011;28754;47.700;7.924;2024-03-06T15:33:21;1.73;;;1.45;;
42614;SDS011;28754;47.700;7.924;2024-03-06T15:36:08;2.08;;;1.40;;
42614;SDS011;28754;47.700;7.924;2024-03-06T15:38:55;1.70;;;1.48;;
42614;SDS011;28754;47.700;7.924;2024-03-06T15:41:43;1.10;;;0.98;;
42614;SDS011;28754;47.700;7.924;2024-03-06T15:44:29;1.30;;;1.20;;
42614;SDS011;28754;47.700;7.924;2024-03-06T15:47:16;1.92;;;1.50;;
42614;SDS011;28754;47.700;7.924;2024-03-06T15:50:04;1.48;;;1.13;;
42614;SDS011;28754;47.700;7.924;2024-03-06T15:52:55;2.25;;;1.00;;
42614;SDS011;28754;47.700;7.924;2024-03-06T15:55:42;1.00;;;0.82;;
42614;SDS011;28754;47.700;7.924;2024-03-06T15:58:28;1.40;;;0.90;;
42614;SDS011;28754;47.700;7.924;2024-03-06T16:01:15;1.80;;;1.20;;
42614;SDS011;28754;47.700;7.924;2024-03-06T16:04:01;1.88;;;1.02;;
42614;SDS011;28754;47.700;7.924;2024-03-06T16:06:49;1.08;;;0.60;;
42614;SDS011;28754;47.700;7.924;2024-03-06T16:09:36;2.45;;;0.70;;
42614;SDS011;28754;47.700;7.924;2024-03-06T16:12:22;1.70;;;1.05;;
42614;SDS011;28754;47.700;7.924;2024-03-06T16:15:10;2.13;;;1.10;;
42614;SDS011;28754;47.700;7.924;2024-03-06T16:17:56;4.57;;;1.02;;
42614;SDS011;28754;47.700;7.924;2024-03-06T16:20:43;2.85;;;1.20;;
42614;SDS011;28754;47.700;7.924;2024-03-06T16:23:30;1.50;;;1.10;;
42614;SDS011;28754;47.700;7.924;2024-03-06T16:26:18;1.58;;;1.00;;
42614;SDS011;28754;47.700;7.924;2024-03-06T16:29:04;1.63;;;1.02;;
42614;SDS011;28754;47.700;7.924;2024-03-06T16:31:51;1.60;;;1.20;;
42614;SDS011;28754;47.700;7.924;2024-03-06T16:34:38;1.35;;;1.00;;
42614;SDS011;28754;47.700;7.924;2024-03-06T16:37:25;2.65;;;1.00;;
42614;SDS011;28754;47.700;7.924;2024-03-06T16:40:12;1.52;;;1.20;;
42614;SDS011;28754;47.700;7.924;2024-03-06T16:42:58;1.92;;;1.17;;
42614;SDS011;28754;47.700;7.924;2024-03-06T16:45:45;1.48;;;1.10;;
42614;SDS011;28754;47.700;7.924;2024-03-06T16:48:32;4.03;;;1.67;;
42614;SDS011;28754;47.700;7.924;2024-03-06T16:51:20;0.90;;;0.80;;
42614;SDS011;28754;47.700;7.924;2024-03-06T16:54:07;1.52;;;1.00;;
42614;SDS011;28754;47.700;7.924;2024-03-06T16:56:53;1.20;;;0.70;;
42614;SDS011;28754;47.700;7.924;2024-03-06T16:59:40;2.38;;;1.30;;
42614;SDS011;28754;47.700;7.924;2024-03-06T17:02:27;2.17;;;1.40;;
42614;SDS011;28754;47.700;7.924;2024-03-06T17:05:13;2.67;;;1.13;;
42614;SDS011;28754;47.700;7.924;2024-03-06T17:08:00;2.47;;;1.60;;
42614;SDS011;28754;47.700;7.924;2024-03-06T17:10:50;1.63;;;1.05;;
42614;SDS011;28754;47.700;7.924;2024-03-06T17:13:37;1.40;;;1.13;;
42614;SDS011;28754;47.700;7.924;2024-03-06T17:16:25;1.73;;;1.15;;
42614;SDS011;28754;47.700;7.924;2024-03-06T17:19:12;2.55;;;1.08;;
42614;SDS011;28754;47.700;7.924;2024-03-06T17:22:00;1.90;;;1.23;;
42614;SDS011;28754;47.700;7.924;2024-03-06T17:24:48;0.98;;;0.73;;
42614;SDS011;28754;47.700;7.924;2024-03-06T17:27:35;1.00;;;0.90;;
42614;SDS011;28754;47.700;7.924;2024-03-06T17:30:22;2.10;;;1.10;;
42614;SDS011;28754;47.700;7.924;2024-03-06T17:33:09;0.90;;;0.80;;
42614;SDS011;28754;47.700;7.924;2024-03-06T17:36:01;1.33;;;0.90;;
42614;SDS011;28754;47.700;7.924;2024-03-06T17:38:48;1.02;;;0.93;;